Time;durP1;ratioP1;P1;durP2;ratioP2;P2;SDS_P1;SDS_P2;PMS_P1;PMS_P2;Temp;Humidity;BMP_temperature;BMP_pressure;BME280_temperature;BME280_humidity;BME280_pressure;Samples;Min_cycle;Max_cycle;Signal;HPM_P1;HPM_P2
2023/01/22 00:01:39;;;;;;;8.50;7.70;;;;;;;-3.93;100.00;97436.00;5008558;28;20231;-64
2023/01/22 00:04:08;;;;;;;9.70;7.53;;;;;;;-3.94;100.00;97446.44;5009349;28;20210;-62
2023/01/22 00:06:35;;;;;;;9.07;7.80;;;;;;;-3.98;100.00;97440.59;5015938;28;20209;-63
2023/01/22 00:09:03;;;;;;;8.77;8.00;;;;;;;-4.00;100.00;97441.59;4994023;28;20568;-62
2023/01/22 00:11:32;;;;;;;11.17;9.13;;;;;;;-4.04;100.00;97448.72;5012497;28;20198;-65
2023/01/22 00:14:00;;;;;;;10.87;9.67;;;;;;;-4.12;100.00;97449.13;4966606;28;20208;-63
2023/01/22 00:16:27;;;;;;;9.77;8.77;;;;;;;-4.16;100.00;97444.22;5011535;28;20643;-65
2023/01/22 00:18:55;;;;;;;9.67;8.63;;;;;;;-4.29;100.00;97431.94;5012085;28;20225;-62
2023/01/22 00:21:23;;;;;;;10.17;9.27;;;;;;;-4.28;100.00;97443.97;5007427;28;20228;-63
2023/01/22 00:23:50;;;;;;;9.43;8.53;;;;;;;-4.29;100.00;97446.66;5012823;28;20197;-62
2023/01/22 00:26:19;;;;;;;9.93;8.90;;;;;;;-4.30;100.00;97447.59;4993389;28;20480;-63
2023/01/22 00:28:48;;;;;;;11.67;9.57;;;;;;;-4.35;100.00;97450.41;5011408;28;20228;-65
2023/01/22 00:31:16;;;;;;;9.00;7.60;;;;;;;-4.31;100.00;97451.91;4972999;28;20844;-65
2023/01/22 00:33:45;;;;;;;8.70;7.80;;;;;;;-4.33;100.00;97453.75;5014004;28;20299;-64
2023/01/22 00:36:14;;;;;;;8.70;7.90;;;;;;;-4.42;100.00;97455.06;5008961;28;20445;-65
2023/01/22 00:38:42;;;;;;;8.50;7.80;;;;;;;-4.49;100.00;97461.50;5017888;28;20234;-65
2023/01/22 00:41:10;;;;;;;9.50;8.50;;;;;;;-4.47;100.00;97461.44;4988106;28;20197;-65
2023/01/22 00:43:38;;;;;;;9.20;7.87;;;;;;;-4.52;100.00;97461.66;5013719;28;20837;-62
2023/01/22 00:46:07;;;;;;;9.40;8.47;;;;;;;-4.55;100.00;97461.84;4960876;28;21130;-62
2023/01/22 00:48:35;;;;;;;9.90;8.03;;;;;;;-4.60;100.00;97466.44;5013577;28;20270;-62
2023/01/22 00:51:02;;;;;;;9.40;8.50;;;;;;;-4.67;100.00;97466.75;5011859;28;20230;-61
2023/01/22 00:53:30;;;;;;;8.57;7.77;;;;;;;-4.64;100.00;97470.91;5013290;28;20216;-65
2023/01/22 00:55:59;;;;;;;10.23;8.23;;;;;;;-4.69;100.00;97467.75;4993726;28;20497;-62
2023/01/22 00:58:28;;;;;;;9.73;8.73;;;;;;;-4.66;100.00;97462.41;5009088;28;20422;-65
2023/01/22 01:00:56;;;;;;;9.70;8.80;;;;;;;-4.72;100.00;97461.00;4970473;28;20695;-62
2023/01/22 01:03:29;;;;;;;9.73;8.77;;;;;;;-4.66;100.00;97458.09;5009874;28;20559;-62
2023/01/22 01:05:59;;;;;;;8.97;8.07;;;;;;;-4.69;100.00;97455.66;5015574;28;20208;-61
2023/01/22 01:08:28;;;;;;;9.70;8.47;;;;;;;-4.72;100.00;97458.41;5012010;28;20232;-65
2023/01/22 01:10:56;;;;;;;8.60;7.80;;;;;;;-4.74;100.00;97457.63;4998470;28;20224;-61
2023/01/22 01:13:24;;;;;;;8.80;8.00;;;;;;;-4.74;100.00;97460.22;5012310;28;20295;-65
2023/01/22 01:15:59;;;;;;;9.17;8.27;;;;;;;-4.72;100.00;97462.75;4970550;28;20475;-62
2023/01/22 01:18:28;;;;;;;9.07;8.17;;;;;;;-4.67;100.00;97466.75;5017202;28;20319;-65
2023/01/22 01:20:56;;;;;;;9.33;8.50;;;;;;;-4.59;100.00;97471.50;5016750;28;20226;-61
2023/01/22 01:23:24;;;;;;;8.73;7.87;;;;;;;-4.55;100.00;97480.75;5012425;28;20347;-62
2023/01/22 01:25:52;;;;;;;9.43;8.40;;;;;;;-4.47;100.00;97482.94;5015881;28;20401;-63
2023/01/22 01:28:20;;;;;;;8.13;7.43;;;;;;;-4.39;100.00;97480.78;4995183;28;20486;-65
2023/01/22 01:30:47;;;;;;;15.17;12.73;;;;;;;-4.22;100.00;97484.22;5015070;28;20460;-65
2023/01/22 01:33:15;;;;;;;15.17;12.27;;;;;;;-4.18;100.00;97490.03;4971115;28;21007;-63
2023/01/22 01:35:44;;;;;;;12.53;10.60;;;;;;;-4.11;100.00;97483.63;5016600;28;20454;-65
2023/01/22 01:38:12;;;;;;;9.83;8.83;;;;;;;-4.12;100.00;97487.94;5007009;28;20231;-65
2023/01/22 01:40:42;;;;;;;8.77;7.87;;;;;;;-4.03;100.00;97491.78;5017439;28;20195;-64
2023/01/22 01:43:14;;;;;;;9.87;8.60;;;;;;;-3.94;100.00;97496.47;4989308;28;20349;-62
2023/01/22 01:45:42;;;;;;;9.10;8.20;;;;;;;-3.92;100.00;97491.22;5014407;28;20200;-65
2023/01/22 01:48:20;;;;;;;9.53;8.63;;;;;;;-3.81;100.00;97498.34;4965939;28;20238;-65
2023/01/22 01:50:54;;;;;;;9.47;8.47;;;;;;;-3.78;100.00;97491.25;4971368;28;20847;-62
2023/01/22 01:53:21;;;;;;;10.20;9.10;;;;;;;-3.73;100.00;97493.59;5010515;28;20201;-64
2023/01/22 01:55:49;;;;;;;8.97;8.00;;;;;;;-3.72;100.00;97500.44;5012543;28;20618;-64
2023/01/22 01:58:20;;;;;;;10.47;9.43;;;;;;;-3.71;100.00;97493.50;5017766;28;20687;-64
2023/01/22 02:00:51;;;;;;;10.60;9.30;;;;;;;-3.70;100.00;97489.97;5004081;28;20238;-65
2023/01/22 02:03:19;;;;;;;9.17;8.27;;;;;;;-3.67;100.00;97493.25;5012961;28;20618;-65
2023/01/22 02:05:47;;;;;;;11.17;9.73;;;;;;;-3.63;100.00;97493.88;4956095;28;20215;-61
2023/01/22 02:08:16;;;;;;;10.47;9.27;;;;;;;-3.67;100.00;97493.25;5015373;28;20931;-64
2023/01/22 02:10:44;;;;;;;8.43;7.63;;;;;;;-3.64;100.00;97493.06;5009140;28;20204;-61
2023/01/22 02:13:16;;;;;;;9.73;8.73;;;;;;;-3.63;100.00;97496.47;5006622;28;20275;-65
2023/01/22 02:15:43;;;;;;;9.83;8.83;;;;;;;-3.64;100.00;97494.81;5008289;28;20205;-62
2023/01/22 02:18:11;;;;;;;9.37;8.43;;;;;;;-3.61;100.00;97499.00;5012389;28;20228;-63
2023/01/22 02:20:41;;;;;;;10.20;8.80;;;;;;;-3.58;100.00;97496.22;4969308;28;20745;-62
2023/01/22 02:23:08;;;;;;;8.77;7.97;;;;;;;-3.69;100.00;97502.00;4981052;28;20224;-62
2023/01/22 02:25:36;;;;;;;9.17;8.37;;;;;;;-3.69;100.00;97502.00;5015110;28;20793;-66
2023/01/22 02:28:04;;;;;;;10.00;8.97;;;;;;;-3.74;100.00;97497.09;5018255;28;20266;-65
2023/01/22 02:30:31;;;;;;;9.93;8.60;;;;;;;-3.77;100.00;97497.28;5008429;28;20208;-62
2023/01/22 02:32:59;;;;;;;10.23;8.77;;;;;;;-3.76;100.00;97495.50;5019547;28;20270;-65
2023/01/22 02:35:27;;;;;;;10.00;9.00;;;;;;;-3.59;100.00;97504.91;4992637;28;20212;-62
2023/01/22 02:37:55;;;;;;;8.80;8.00;;;;;;;-3.55;100.00;97499.50;4970432;28;20234;-62
2023/01/22 02:40:23;;;;;;;8.90;8.13;;;;;;;-3.51;100.00;97498.38;5012644;28;20381;-62
2023/01/22 02:42:51;;;;;;;8.97;8.07;;;;;;;-3.52;100.00;97496.72;5014821;28;20227;-62
2023/01/22 02:45:18;;;;;;;8.53;7.70;;;;;;;-3.58;100.00;97502.25;5014526;28;20234;-62
2023/01/22 02:47:46;;;;;;;10.10;9.20;;;;;;;-3.69;100.00;97496.81;5015270;28;20224;-65
2023/01/22 02:50:13;;;;;;;9.80;8.90;;;;;;;-3.75;100.00;97500.63;5008339;28;20687;-61
2023/01/22 02:52:41;;;;;;;10.23;9.23;;;;;;;-3.82;100.00;97499.28;4946825;28;26691;-64
2023/01/22 02:55:10;;;;;;;9.53;8.70;;;;;;;-3.76;100.00;97498.09;5019005;28;20248;-63
2023/01/22 02:57:37;;;;;;;10.67;8.83;;;;;;;-3.73;100.00;97501.38;5016188;28;20410;-65
2023/01/22 03:00:06;;;;;;;13.10;8.73;;;;;;;-3.83;100.00;97497.59;5013775;28;20215;-65
2023/01/22 03:02:34;;;;;;;10.27;9.23;;;;;;;-3.78;100.00;97500.78;5011163;28;20204;-64
2023/01/22 03:05:03;;;;;;;9.40;8.50;;;;;;;-3.70;100.00;97508.09;5011370;28;20208;-64
2023/01/22 03:07:40;;;;;;;10.63;9.60;;;;;;;-3.74;100.00;97501.44;4988948;28;20208;-64
2023/01/22 03:10:13;;;;;;;10.80;9.40;;;;;;;-3.72;100.00;97500.44;4969782;28;20322;-65
2023/01/22 03:23:42;;;;;;;9.43;8.10;;;;;;;-3.35;100.00;97511.28;4947199;28;20582;-65
2023/01/22 03:26:11;;;;;;;9.57;8.77;;;;;;;-3.36;100.00;97512.22;5016622;28;20203;-63
2023/01/22 03:28:39;;;;;;;9.50;8.60;;;;;;;-3.46;100.00;97513.66;5012865;28;20521;-65
2023/01/22 03:31:07;;;;;;;10.63;8.40;;;;;;;-3.41;100.00;97518.56;5014362;28;20226;-65
2023/01/22 03:33:35;;;;;;;10.57;8.70;;;;;;;-3.37;100.00;97518.31;5012420;28;20226;-64
2023/01/22 03:36:03;;;;;;;10.23;9.13;;;;;;;-3.39;100.00;97514.13;5013654;28;20199;-65
2023/01/22 03:38:31;;;;;;;10.17;8.57;;;;;;;-3.29;100.00;97517.03;4947464;28;21259;-62
2023/01/22 03:41:03;;;;;;;9.43;8.30;;;;;;;-3.30;100.00;97521.38;5015727;28;20200;-62
2023/01/22 03:43:33;;;;;;;9.23;8.33;;;;;;;-3.19;100.00;97525.94;5010342;28;21470;-65
2023/01/22 03:46:02;;;;;;;9.33;8.33;;;;;;;-3.18;100.00;97519.84;5014943;28;20605;-64
2023/01/22 03:48:30;;;;;;;9.10;8.30;;;;;;;-3.24;100.00;97522.78;5005860;28;20922;-65
2023/01/22 03:50:57;;;;;;;10.07;8.63;;;;;;;-3.22;100.00;97529.56;5016908;28;20671;-65
2023/01/22 03:53:26;;;;;;;8.57;7.73;;;;;;;-3.12;100.00;97524.66;4971202;28;20204;-62
2023/01/22 03:55:58;;;;;;;9.00;8.10;;;;;;;-3.15;100.00;97532.63;5013257;28;20594;-63
2023/01/22 03:58:25;;;;;;;9.40;8.50;;;;;;;-3.11;100.00;97534.09;4961540;28;20857;-64
2023/01/22 04:00:56;;;;;;;9.07;8.13;;;;;;;-3.08;100.00;97527.91;5015320;28;20274;-62
2023/01/22 04:03:25;;;;;;;9.57;8.60;;;;;;;-3.15;100.00;97517.06;5010793;28;20482;-65
2023/01/22 04:05:53;;;;;;;9.83;8.83;;;;;;;-3.07;100.00;97534.78;5015481;28;20243;-62
2023/01/22 04:08:22;;;;;;;9.60;8.73;;;;;;;-3.06;100.00;97539.84;5005926;28;20224;-64
2023/01/22 04:10:49;;;;;;;9.20;8.30;;;;;;;-3.04;100.00;97539.78;5015473;28;20209;-61
2023/01/22 04:13:17;;;;;;;9.43;8.53;;;;;;;-3.11;100.00;97531.50;4959564;28;20892;-64
2023/01/22 04:15:44;;;;;;;9.60;8.63;;;;;;;-3.12;100.00;97536.78;5008607;28;20212;-64
2023/01/22 04:18:13;;;;;;;9.13;8.23;;;;;;;-3.09;100.00;97529.66;5012395;28;20544;-65
2023/01/22 04:20:41;;;;;;;9.50;8.60;;;;;;;-3.03;100.00;97538.00;5014059;28;20210;-64
2023/01/22 04:23:09;;;;;;;9.30;8.47;;;;;;;-3.11;100.00;97535.88;5009831;28;20208;-65
2023/01/22 04:25:36;;;;;;;10.87;9.73;;;;;;;-3.05;100.00;97540.69;5014175;28;20204;-64
2023/01/22 04:28:05;;;;;;;9.60;8.60;;;;;;;-3.03;100.00;97538.84;5008254;28;20235;-62
2023/01/22 04:30:32;;;;;;;9.93;8.93;;;;;;;-2.98;100.00;97536.00;4965794;28;20591;-64
2023/01/22 04:33:00;;;;;;;8.87;8.03;;;;;;;-3.00;100.00;97543.03;5012216;28;20885;-62
2023/01/22 04:35:29;;;;;;;9.03;8.13;;;;;;;-2.91;100.00;97538.13;5015293;28;20212;-65
2023/01/22 04:37:57;;;;;;;8.97;8.07;;;;;;;-2.88;100.00;97541.44;5016235;28;20220;-62
2023/01/22 04:40:25;;;;;;;9.17;8.37;;;;;;;-2.89;100.00;97545.81;5017733;28;20289;-65
2023/01/22 04:42:52;;;;;;;9.40;8.60;;;;;;;-2.95;100.00;97541.00;5021287;28;20204;-62
2023/01/22 04:45:20;;;;;;;8.93;8.13;;;;;;;-3.00;100.00;97541.25;4967091;28;21093;-64
2023/01/22 04:47:48;;;;;;;9.27;8.33;;;;;;;-3.02;100.00;97548.28;5019986;28;20661;-62
2023/01/22 04:50:17;;;;;;;9.30;8.50;;;;;;;-3.08;100.00;97538.28;5013341;28;20489;-62
2023/01/22 04:52:47;;;;;;;8.70;7.97;;;;;;;-3.03;100.00;97540.59;5017316;28;20643;-62
2023/01/22 04:55:14;;;;;;;8.07;7.30;;;;;;;-3.06;100.00;97549.41;5008223;28;20357;-65
2023/01/22 04:57:42;;;;;;;9.77;8.70;;;;;;;-3.06;100.00;97529.47;5015058;28;20236;-65
2023/01/22 05:00:11;;;;;;;8.93;8.13;;;;;;;-3.09;100.00;97540.03;4972725;28;20900;-62
2023/01/22 05:02:39;;;;;;;10.10;9.10;;;;;;;-3.06;100.00;97544.22;4994947;28;20329;-65
2023/01/22 05:05:08;;;;;;;9.37;8.37;;;;;;;-2.98;100.00;97546.38;5020977;28;20301;-65
2023/01/22 05:07:35;;;;;;;9.83;8.93;;;;;;;-3.01;100.00;97549.97;5003676;28;20861;-65
2023/01/22 05:10:05;;;;;;;9.37;8.47;;;;;;;-3.04;100.00;97547.56;5014914;28;20550;-66
2023/01/22 05:12:33;;;;;;;8.83;8.03;;;;;;;-3.11;100.00;97541.06;4993619;28;20222;-63
2023/01/22 05:15:01;;;;;;;9.40;8.60;;;;;;;-3.01;100.00;97547.38;5005354;28;20211;-61
2023/01/22 05:17:33;;;;;;;9.50;8.60;;;;;;;-2.99;100.00;97555.06;4969306;28;20222;-62
2023/01/22 05:20:01;;;;;;;9.20;8.23;;;;;;;-3.04;100.00;97544.97;4988835;28;20211;-62
2023/01/22 05:22:28;;;;;;;10.50;9.50;;;;;;;-3.09;100.00;97554.75;5008131;28;20227;-62
2023/01/22 05:24:56;;;;;;;10.30;9.30;;;;;;;-3.10;100.00;97558.28;5012414;28;20215;-64
2023/01/22 05:27:25;;;;;;;10.17;9.10;;;;;;;-3.14;100.00;97559.38;5011189;28;20224;-63
2023/01/22 05:29:52;;;;;;;9.33;8.43;;;;;;;-3.14;100.00;97561.97;4995239;28;20224;-63
2023/01/22 05:32:20;;;;;;;10.83;9.73;;;;;;;-3.21;100.00;97557.16;4962262;28;20204;-61
2023/01/22 05:34:47;;;;;;;10.67;9.30;;;;;;;-3.17;100.00;97570.75;5010771;28;20200;-65
2023/01/22 05:37:15;;;;;;;9.27;8.47;;;;;;;-3.17;100.00;97550.00;4969148;28;20208;-62
2023/01/22 05:39:42;;;;;;;9.47;8.50;;;;;;;-3.02;100.00;97570.81;5017718;28;20311;-65
2023/01/22 05:42:14;;;;;;;10.03;9.03;;;;;;;-3.08;100.00;97564.22;5001386;28;20220;-62
2023/01/22 05:44:43;;;;;;;11.07;10.07;;;;;;;-2.96;100.00;97570.44;5015356;28;20232;-65
2023/01/22 05:47:13;;;;;;;9.80;8.90;;;;;;;-3.10;100.00;97566.88;4958428;28;20217;-61
2023/01/22 05:49:40;;;;;;;9.17;8.37;;;;;;;-3.07;100.00;97577.06;5006824;28;20411;-64
2023/01/22 05:52:09;;;;;;;9.70;8.90;;;;;;;-3.13;100.00;97577.44;5009996;28;20623;-62
2023/01/22 05:54:38;;;;;;;9.07;8.17;;;;;;;-3.13;100.00;97582.59;5002980;28;20513;-64
2023/01/22 05:57:06;;;;;;;10.57;9.50;;;;;;;-3.06;100.00;97580.50;4997274;28;20310;-62
2023/01/22 05:59:34;;;;;;;9.43;8.63;;;;;;;-3.02;100.00;97584.59;5006724;28;20600;-64
2023/01/22 06:02:03;;;;;;;11.50;10.40;;;;;;;-3.08;100.00;97583.19;4986223;28;20201;-63
2023/01/22 06:04:31;;;;;;;10.10;9.10;;;;;;;-3.00;100.00;97587.09;4976319;28;20437;-62
2023/01/22 06:06:59;;;;;;;10.83;9.73;;;;;;;-3.08;100.00;97583.19;4956261;28;20861;-64
2023/01/22 06:09:26;;;;;;;10.57;9.57;;;;;;;-2.98;100.00;97580.88;5005449;28;20220;-65
2023/01/22 06:11:54;;;;;;;10.90;9.90;;;;;;;-3.09;100.00;97580.69;5005227;28;20739;-63
2023/01/22 06:14:21;;;;;;;10.53;9.53;;;;;;;-3.09;100.00;97575.50;5016673;28;20208;-63
2023/01/22 06:16:49;;;;;;;10.10;9.10;;;;;;;-3.08;100.00;97579.75;5011885;28;20212;-63
2023/01/22 06:19:17;;;;;;;10.60;9.60;;;;;;;-3.09;100.00;97586.69;4996431;28;20243;-65
2023/01/22 06:21:46;;;;;;;10.13;9.30;;;;;;;-3.03;100.00;97593.28;4984035;28;20192;-63
2023/01/22 06:24:14;;;;;;;11.33;10.03;;;;;;;-3.05;100.00;97590.78;4998772;28;20233;-64
2023/01/22 06:26:41;;;;;;;11.57;10.37;;;;;;;-3.05;100.00;97588.19;4988901;28;20219;-62
2023/01/22 06:29:09;;;;;;;10.33;9.20;;;;;;;-3.10;100.00;97586.78;5012116;28;20777;-67
2023/01/22 06:31:36;;;;;;;11.73;10.17;;;;;;;-3.08;100.00;97588.38;5009445;28;20713;-65
2023/01/22 06:34:04;;;;;;;9.67;8.63;;;;;;;-3.05;100.00;97601.16;5000384;28;20538;-65
2023/01/22 06:36:33;;;;;;;10.47;9.43;;;;;;;-2.97;100.00;97599.88;5009703;28;20200;-65
2023/01/22 06:39:01;;;;;;;11.53;10.43;;;;;;;-2.91;100.00;97605.53;4973202;28;20574;-66
2023/01/22 06:41:28;;;;;;;11.07;10.00;;;;;;;-2.93;100.00;97596.19;5015016;28;20870;-65
2023/01/22 06:43:56;;;;;;;11.73;10.63;;;;;;;-2.92;100.00;97603.88;5012105;28;20332;-66
2023/01/22 06:46:23;;;;;;;9.53;8.70;;;;;;;-2.88;100.00;97608.88;5010216;28;20217;-63
2023/01/22 06:48:51;;;;;;;11.23;10.13;;;;;;;-2.88;100.00;97616.66;5012875;28;20362;-66
2023/01/22 06:51:18;;;;;;;10.63;9.63;;;;;;;-2.84;100.00;97615.53;5012983;28;20418;-66
2023/01/22 06:53:47;;;;;;;10.63;9.60;;;;;;;-2.83;100.00;97617.25;4972344;28;20227;-66
2023/01/22 06:56:15;;;;;;;13.00;10.70;;;;;;;-2.87;100.00;97623.50;4969109;28;20223;-64
2023/01/22 06:58:42;;;;;;;11.43;10.27;;;;;;;-2.95;100.00;97619.59;5012162;28;20585;-66
2023/01/22 07:01:10;;;;;;;10.03;9.10;;;;;;;-2.87;100.00;97628.69;5011910;28;20208;-63
2023/01/22 07:03:37;;;;;;;10.37;9.47;;;;;;;-2.80;100.00;97623.06;5010157;28;20217;-66
2023/01/22 07:06:05;;;;;;;11.67;10.33;;;;;;;-2.83;100.00;97630.22;4987464;28;20330;-64
2023/01/22 07:08:33;;;;;;;10.50;9.50;;;;;;;-2.89;100.00;97627.94;5010932;28;20638;-66
2023/01/22 07:11:02;;;;;;;11.07;10.03;;;;;;;-2.98;100.00;97627.56;4965014;28;20208;-63
2023/01/22 07:13:33;;;;;;;9.77;8.87;;;;;;;-2.98;100.00;97631.94;5009404;28;20251;-66
2023/01/22 07:16:01;;;;;;;10.63;9.57;;;;;;;-2.96;100.00;97628.31;5003525;28;20211;-63
2023/01/22 07:18:29;;;;;;;10.47;9.27;;;;;;;-2.92;100.00;97649.72;4994472;28;20756;-65
2023/01/22 07:21:00;;;;;;;10.40;9.30;;;;;;;-2.84;100.00;97644.06;5007726;28;20204;-65
2023/01/22 07:23:28;;;;;;;10.37;9.27;;;;;;;-2.86;100.00;97644.19;4989379;28;20643;-62
2023/01/22 07:25:56;;;;;;;11.90;10.57;;;;;;;-2.82;100.00;97650.03;4965892;28;20239;-64
2023/01/22 07:28:25;;;;;;;11.40;10.40;;;;;;;-2.75;100.00;97656.53;5004663;28;20220;-63
2023/01/22 07:30:52;;;;;;;10.37;9.37;;;;;;;-2.72;100.00;97661.53;4998885;28;20600;-66
2023/01/22 07:33:20;;;;;;;11.23;10.13;;;;;;;-2.75;100.00;97661.72;5005545;28;20208;-63
2023/01/22 07:35:53;;;;;;;11.40;10.27;;;;;;;-2.74;100.00;97662.53;4988415;28;20212;-65
2023/01/22 07:38:21;;;;;;;12.97;11.70;;;;;;;-2.73;100.00;97667.66;4991442;28;20220;-63
2023/01/22 07:40:48;;;;;;;13.03;10.67;;;;;;;-2.70;100.00;97675.25;4962979;28;20670;-65
2023/01/22 07:43:16;;;;;;;14.10;12.63;;;;;;;-2.66;100.00;97674.16;4989129;28;20471;-65
2023/01/22 07:45:45;;;;;;;12.57;11.37;;;;;;;-2.57;100.00;97679.72;4981312;28;20690;-64
2023/01/22 07:48:13;;;;;;;13.63;12.20;;;;;;;-2.63;100.00;97676.56;5006407;28;20312;-65
2023/01/22 07:50:40;;;;;;;12.07;10.97;;;;;;;-2.62;100.00;97675.66;4985597;28;20208;-63
2023/01/22 07:53:10;;;;;;;12.90;11.10;;;;;;;-2.54;100.00;97671.75;4972384;28;20812;-67
2023/01/22 07:55:38;;;;;;;11.97;10.73;;;;;;;-2.40;100.00;97678.75;4963436;28;20246;-63
2023/01/22 07:58:07;;;;;;;12.63;11.30;;;;;;;-2.40;100.00;97687.38;4978976;28;20220;-65
2023/01/22 08:00:35;;;;;;;13.13;12.00;;;;;;;-2.49;100.00;97683.56;5002744;28;20216;-63
2023/01/22 08:03:05;;;;;;;12.97;11.67;;;;;;;-2.43;100.00;97687.56;5002441;28;20216;-64
2023/01/22 08:05:33;;;;;;;13.33;12.13;;;;;;;-2.39;100.00;97694.25;4968743;28;20235;-63
2023/01/22 08:08:01;;;;;;;15.63;13.53;;;;;;;-2.39;100.00;97688.19;5006664;28;20232;-65
2023/01/22 08:10:28;;;;;;;14.23;12.73;;;;;;;-2.34;100.00;97697.41;4966729;28;21234;-65
2023/01/22 08:12:56;;;;;;;14.80;13.30;;;;;;;-2.29;100.00;97704.06;4967637;28;20456;-63
2023/01/22 08:15:23;;;;;;;13.80;12.30;;;;;;;-2.20;100.00;97706.13;4941498;28;21012;-65
2023/01/22 08:17:51;;;;;;;12.50;11.30;;;;;;;-2.11;100.00;97704.75;5011650;28;20226;-65
2023/01/22 08:20:21;;;;;;;13.43;12.33;;;;;;;-2.15;100.00;97705.84;4991142;28;22886;-64
2023/01/22 08:22:49;;;;;;;13.30;12.13;;;;;;;-2.06;100.00;97711.34;5005700;28;20503;-65
2023/01/22 08:25:17;;;;;;;14.87;13.43;;;;;;;-2.10;100.00;97711.59;5011787;28;20215;-63
2023/01/22 08:27:44;;;;;;;13.73;12.40;;;;;;;-2.04;100.00;97716.44;5007843;28;20224;-62
2023/01/22 08:30:14;;;;;;;14.37;12.90;;;;;;;-1.95;100.00;97718.47;4963748;28;20227;-65
2023/01/22 08:32:44;;;;;;;15.07;13.67;;;;;;;-1.93;100.00;97724.41;5004383;28;20777;-65
2023/01/22 08:35:12;;;;;;;13.53;12.10;;;;;;;-1.77;100.00;97726.09;5010860;28;20460;-65
2023/01/22 08:37:42;;;;;;;14.00;12.70;;;;;;;-1.85;100.00;97729.16;4985942;28;20208;-62
2023/01/22 08:40:11;;;;;;;13.90;12.50;;;;;;;-1.78;100.00;97730.44;4990979;28;20212;-64
2023/01/22 08:42:38;;;;;;;13.30;12.00;;;;;;;-1.87;100.00;97736.19;5007718;28;20325;-64
2023/01/22 08:45:07;;;;;;;12.10;10.73;;;;;;;-1.94;100.00;97732.31;5008988;28;20648;-64
2023/01/22 08:47:35;;;;;;;12.87;11.63;;;;;;;-1.87;100.00;97741.41;4941406;28;21542;-64
2023/01/22 08:50:03;;;;;;;13.00;11.63;;;;;;;-1.85;100.00;97736.94;5010832;28;20215;-64
2023/01/22 08:52:30;;;;;;;12.47;11.30;;;;;;;-1.83;100.00;97736.88;4981950;28;20716;-61
2023/01/22 08:54:59;;;;;;;13.47;12.13;;;;;;;-1.79;100.00;97739.16;5008661;28;20209;-64
2023/01/22 08:57:27;;;;;;;13.83;12.43;;;;;;;-1.91;100.00;97740.72;5007134;28;20597;-61
2023/01/22 08:59:55;;;;;;;15.47;14.03;;;;;;;-1.84;100.00;97736.00;5009166;28;20197;-62
2023/01/22 09:02:28;;;;;;;15.03;13.10;;;;;;;-1.76;100.00;97738.16;4964257;28;20311;-62
2023/01/22 09:04:55;;;;;;;14.37;13.03;;;;;;;-1.68;100.00;97738.53;5009670;28;20285;-63
2023/01/22 09:07:23;;;;;;;15.97;14.27;;;;;;;-1.65;100.00;97735.75;4998685;28;20231;-62
2023/01/22 09:09:50;;;;;;;15.90;14.47;;;;;;;-1.68;100.00;97732.50;5001149;28;20504;-64
2023/01/22 09:12:19;;;;;;;14.67;13.27;;;;;;;-1.52;100.00;97734.97;5003773;28;20735;-62
2023/01/22 09:14:47;;;;;;;17.50;15.80;;;;;;;-1.60;100.00;97733.69;4997053;28;20208;-65
2023/01/22 09:17:15;;;;;;;15.43;13.90;;;;;;;-1.58;100.00;97733.59;4942969;28;20334;-63
2023/01/22 09:19:42;;;;;;;13.37;12.17;;;;;;;-1.49;100.00;97738.22;5011888;28;20223;-64
2023/01/22 09:22:10;;;;;;;12.20;11.10;;;;;;;-1.36;100.00;97750.47;4992699;28;20224;-64
2023/01/22 09:24:37;;;;;;;13.03;11.63;;;;;;;-1.38;100.00;97747.13;4989481;28;20219;-63
2023/01/22 09:27:05;;;;;;;12.57;11.40;;;;;;;-1.18;100.00;97746.72;5004543;28;20220;-62
2023/01/22 09:29:34;;;;;;;13.20;12.00;;;;;;;-1.21;100.00;97746.94;5005676;28;20713;-63
2023/01/22 09:32:03;;;;;;;13.60;12.50;;;;;;;-1.04;100.00;97750.22;4984153;28;20205;-63
2023/01/22 09:34:32;;;;;;;12.30;11.23;;;;;;;-1.09;100.00;97752.28;4984460;28;20754;-63
2023/01/22 09:37:04;;;;;;;12.50;11.20;;;;;;;-1.03;100.00;97738.88;4994880;28;20196;-62
2023/01/22 09:39:31;;;;;;;12.27;11.07;;;;;;;-1.04;100.00;97761.47;4983036;28;20236;-61
2023/01/22 09:42:01;;;;;;;12.87;11.63;;;;;;;-1.02;100.00;97762.22;5007139;28;20204;-62
2023/01/22 09:44:34;;;;;;;12.47;11.17;;;;;;;-0.96;100.00;97767.94;4996450;28;20701;-65
2023/01/22 09:47:04;;;;;;;14.00;12.70;;;;;;;-0.95;100.00;97767.03;5005315;28;20231;-63
2023/01/22 09:49:37;;;;;;;12.57;11.47;;;;;;;-0.93;100.00;97770.38;4967560;28;20242;-63
2023/01/22 09:52:06;;;;;;;11.40;10.30;;;;;;;-1.06;100.00;97759.88;4992489;28;20197;-62
2023/01/22 09:54:33;;;;;;;13.47;12.17;;;;;;;-0.87;100.00;97759.56;5008941;28;20220;-62
2023/01/22 09:57:03;;;;;;;12.63;11.53;;;;;;;-0.63;100.00;97767.56;4993262;28;20298;-63
2023/01/22 09:59:35;;;;;;;11.80;10.80;;;;;;;-0.69;100.00;97760.16;5011038;28;20768;-63
2023/01/22 10:02:16;;;;;;;13.80;12.50;;;;;;;-0.59;100.00;97763.81;5008521;28;20207;-62
2023/01/22 10:04:45;;;;;;;13.50;12.30;;;;;;;-0.48;100.00;97759.72;4968365;28;20231;-64
2023/01/22 10:07:15;;;;;;;11.77;10.67;;;;;;;-0.50;100.00;97758.97;5004620;28;20228;-62
2023/01/22 10:09:47;;;;;;;11.73;10.73;;;;;;;-0.47;100.00;97753.56;4988426;28;20619;-61
2023/01/22 10:12:14;;;;;;;12.23;11.03;;;;;;;-0.41;100.00;97760.13;4989091;28;20205;-62
2023/01/22 10:14:43;;;;;;;11.17;10.17;;;;;;;-0.26;100.00;97756.53;5009265;28;20288;-64
2023/01/22 10:17:17;;;;;;;10.90;9.90;;;;;;;-0.31;100.00;97756.81;5005564;28;20200;-62
2023/01/22 10:19:47;;;;;;;10.90;9.90;;;;;;;-0.31;100.00;97754.22;4966827;28;20239;-65
2023/01/22 10:22:20;;;;;;;12.27;11.13;;;;;;;-0.35;100.00;97750.16;4947651;28;22182;-65
2023/01/22 10:24:48;;;;;;;11.80;10.77;;;;;;;-0.24;100.00;97754.66;4985381;28;20196;-64
2023/01/22 10:27:17;;;;;;;10.73;9.63;;;;;;;-0.33;100.00;97755.25;5010409;28;20213;-62
2023/01/22 10:29:56;;;;;;;10.53;9.60;;;;;;;-0.19;100.00;97760.38;5006399;28;20217;-64
2023/01/22 10:32:25;;;;;;;11.97;10.87;;;;;;;-0.06;100.00;97763.00;4991334;28;20610;-63
2023/01/22 10:35:00;;;;;;;12.77;11.57;;;;;;;-0.08;100.00;97761.44;5009441;28;20576;-64
2023/01/22 10:37:28;;;;;;;10.73;9.80;;;;;;;-0.01;100.00;97765.28;4957931;28;20962;-64
2023/01/22 10:39:58;;;;;;;12.57;11.47;;;;;;;0.12;100.00;97760.94;5009969;28;20208;-65
2023/01/22 10:42:27;;;;;;;11.70;10.60;;;;;;;-0.03;100.00;97764.56;4985713;28;20907;-65
2023/01/22 10:44:58;;;;;;;11.60;10.50;;;;;;;-0.02;100.00;97756.66;5007550;28;20660;-63
2023/01/22 10:47:27;;;;;;;10.80;9.70;;;;;;;-0.15;100.00;97754.03;4986839;28;20912;-65
2023/01/22 10:50:02;;;;;;;9.77;8.87;;;;;;;-0.16;100.00;97754.97;4988181;28;20211;-63
2023/01/22 10:52:36;;;;;;;12.60;11.40;;;;;;;-0.03;100.00;97756.75;4989019;28;20313;-63
2023/01/22 10:55:06;;;;;;;11.00;10.00;;;;;;;-0.03;100.00;97759.34;4963984;28;20212;-62
2023/01/22 10:57:35;;;;;;;10.30;9.43;;;;;;;0.01;100.00;97757.38;5010226;28;20501;-64
2023/01/22 11:00:21;;;;;;;9.73;8.93;;;;;;;0.09;100.00;97747.28;5007660;28;20212;-63
2023/01/22 11:02:50;;;;;;;10.37;9.37;;;;;;;0.25;100.00;97758.34;5007263;28;20668;-64
2023/01/22 11:05:19;;;;;;;11.67;10.67;;;;;;;0.39;100.00;97746.97;4986556;28;20601;-64
2023/01/22 11:07:48;;;;;;;10.73;9.73;;;;;;;0.49;100.00;97757.56;5004382;28;20859;-64
2023/01/22 11:10:19;;;;;;;9.73;8.93;;;;;;;0.43;100.00;97750.19;4962960;28;20437;-65
2023/01/22 11:12:50;;;;;;;10.53;9.63;;;;;;;0.42;100.00;97751.97;5009764;28;20598;-62
2023/01/22 11:15:24;;;;;;;11.30;10.30;;;;;;;0.40;100.00;97746.03;4963009;28;22432;-64
2023/01/22 11:17:54;;;;;;;11.37;10.30;;;;;;;0.27;100.00;97747.78;5002500;28;20220;-62
2023/01/22 11:20:24;;;;;;;11.27;10.17;;;;;;;0.11;100.00;97750.59;4990516;28;20204;-65
2023/01/22 11:23:00;;;;;;;10.83;9.87;;;;;;;0.08;100.00;97750.81;5000570;28;20677;-62
2023/01/22 11:25:36;;;;;;;11.23;10.17;;;;;;;-0.13;100.00;97751.34;4938540;28;20211;-65
2023/01/22 11:28:11;;;;;;;12.00;10.90;;;;;;;-0.15;100.00;97743.59;5007594;28;20227;-64
2023/01/22 11:30:49;;;;;;;12.37;11.17;;;;;;;-0.19;100.00;97754.31;5010032;28;20556;-64
2023/01/22 11:33:26;;;;;;;10.87;9.97;;;;;;;-0.31;100.00;97748.19;5008493;28;20218;-67
2023/01/22 11:35:57;;;;;;;10.93;10.07;;;;;;;-0.24;100.00;97748.59;4992040;28;20507;-65